createdAt,value
2016-10-28T00:00:36.620Z,3.5
2016-10-28T00:01:36.606Z,3.46
2016-10-28T00:02:36.561Z,3.5
2016-10-28T00:03:36.570Z,3.5
2016-10-28T00:04:36.555Z,3.37
2016-10-28T00:05:36.544Z,3.41
2016-10-28T00:06:36.543Z,3.52
2016-10-28T00:07:36.518Z,3.63
2016-10-28T00:08:36.537Z,3.54
2016-10-28T00:09:36.517Z,3.49
2016-10-28T00:10:36.506Z,3.39
2016-10-28T00:11:36.446Z,3.22
2016-10-28T00:12:36.475Z,3.12
2016-10-28T00:13:36.451Z,3.04
2016-10-28T00:14:36.439Z,3.15
2016-10-28T00:15:36.425Z,3.05
2016-10-28T00:16:36.413Z,3.08
2016-10-28T00:17:36.401Z,3.12
2016-10-28T00:18:36.353Z,3.26
2016-10-28T00:19:36.669Z,3.35
2016-10-28T00:20:36.381Z,3.41
2016-10-28T00:21:36.650Z,3.41
2016-10-28T00:22:36.336Z,3.35
2016-10-28T00:23:36.347Z,3.33
2016-10-28T00:24:36.319Z,3.07
2016-10-28T00:25:36.296Z,2.97
2016-10-28T00:26:36.281Z,2.83
2016-10-28T00:27:36.255Z,2.79
2016-10-28T00:28:36.246Z,2.86
2016-10-28T00:29:36.234Z,2.69
2016-10-28T00:30:36.222Z,2.58
2016-10-28T00:31:36.217Z,2.56
2016-10-28T00:32:36.207Z,2.69
2016-10-28T00:33:36.200Z,2.79
2016-10-28T00:34:36.199Z,2.66
2016-10-28T00:35:36.155Z,2.74
2016-10-28T00:36:36.120Z,2.61
2016-10-28T00:37:36.152Z,2.58
2016-10-28T00:38:36.107Z,2.56
2016-10-28T00:39:36.107Z,2.48
2016-10-28T00:40:36.094Z,2.47
2016-10-28T00:41:36.095Z,2.51
2016-10-28T00:42:36.046Z,2.4
2016-10-28T00:43:36.061Z,2.26
2016-10-28T00:44:36.067Z,2.18
2016-10-28T00:45:36.041Z,2.23
2016-10-28T00:46:36.019Z,2.26
2016-10-28T00:47:36.030Z,2.32
2016-10-28T00:48:35.982Z,2.51
2016-10-28T00:49:35.982Z,2.77
2016-10-28T00:50:35.978Z,2.92
2016-10-28T00:51:35.990Z,2.95
2016-10-28T00:52:35.955Z,3.07
2016-10-28T00:53:35.950Z,3.1
2016-10-28T00:54:35.941Z,3.05
2016-10-28T00:55:35.939Z,3.15
2016-10-28T00:56:35.886Z,3.25
2016-10-28T00:57:35.857Z,3.22
2016-10-28T00:58:35.874Z,3.25
2016-10-28T00:59:35.850Z,3.2
2016-10-28T01:00:35.841Z,3.31
2016-10-28T01:01:35.860Z,3.39
2016-10-28T01:02:35.790Z,3.42
2016-10-28T01:03:35.815Z,3.44
2016-10-28T01:04:35.786Z,3.63
2016-10-28T01:05:35.798Z,3.75
2016-10-28T01:06:35.737Z,3.77
2016-10-28T01:07:35.747Z,3.78
2016-10-28T01:08:36.045Z,3.68
2016-10-28T01:09:35.721Z,3.7
2016-10-28T01:10:35.691Z,3.64
2016-10-28T01:11:35.721Z,3.67
2016-10-28T01:12:35.699Z,3.41
2016-10-28T01:13:35.672Z,3.26
2016-10-28T01:14:35.638Z,3.13
2016-10-28T01:15:35.669Z,3.04
2016-10-28T01:16:35.657Z,3.1
2016-10-28T01:17:35.632Z,2.97
2016-10-28T01:18:35.631Z,2.92
2016-10-28T01:19:35.608Z,2.92
2016-10-28T01:20:35.589Z,2.99
2016-10-28T01:21:35.579Z,3.02
2016-10-28T01:22:35.555Z,3.01
2016-10-28T01:23:35.559Z,2.98
2016-10-28T01:24:35.567Z,2.98
2016-10-28T01:25:35.514Z,2.99
2016-10-28T01:26:35.522Z,3.2
2016-10-28T01:27:35.501Z,3.28
2016-10-28T01:28:35.486Z,3.42
2016-10-28T01:29:35.469Z,3.49
2016-10-28T01:30:35.489Z,3.45
2016-10-28T01:31:35.484Z,3.6
2016-10-28T01:32:35.440Z,3.57
2016-10-28T01:33:35.417Z,3.46
2016-10-28T01:34:35.438Z,3.42
2016-10-28T01:35:35.415Z,3.56
2016-10-28T01:36:35.397Z,3.59
2016-10-28T01:37:35.393Z,3.62
2016-10-28T01:38:35.367Z,3.64
2016-10-28T01:39:35.357Z,3.84
2016-10-28T01:40:35.356Z,3.8
2016-10-28T01:41:35.334Z,3.8
2016-10-28T01:42:35.318Z,3.77
2016-10-28T01:43:35.329Z,3.8
2016-10-28T01:44:35.330Z,3.82
2016-10-28T01:45:35.306Z,3.7
2016-10-28T01:46:35.250Z,3.45
2016-10-28T01:47:35.248Z,3.35
2016-10-28T01:48:35.278Z,3.35
2016-10-28T01:49:35.254Z,3.39
2016-10-28T01:50:35.207Z,3.37
2016-10-28T01:51:35.289Z,3.45
2016-10-28T01:52:35.215Z,3.46
2016-10-28T01:53:35.226Z,3.35
2016-10-28T01:54:35.193Z,3.26
2016-10-28T01:55:35.166Z,3.2
2016-10-28T01:56:35.192Z,3.23
2016-10-28T01:57:35.145Z,3.22
2016-10-28T01:58:35.112Z,3.12
2016-10-28T01:59:35.123Z,3.1
2016-10-28T02:00:35.100Z,3.07
2016-10-28T02:01:35.098Z,3.04
2016-10-28T02:02:35.090Z,2.98
2016-10-28T02:03:35.051Z,2.99
2016-10-28T02:04:35.049Z,2.95
2016-10-28T02:05:35.028Z,2.98
2016-10-28T02:06:35.050Z,2.95
2016-10-28T02:07:35.034Z,2.99
2016-10-28T02:08:35.012Z,2.99
2016-10-28T02:09:35.012Z,2.87
2016-10-28T02:10:34.965Z,2.92
2016-10-28T02:11:34.984Z,2.89
2016-10-28T02:12:34.972Z,2.94
2016-10-28T02:13:34.970Z,2.95
2016-10-28T02:14:34.949Z,2.89
2016-10-28T02:15:34.926Z,2.99
2016-10-28T02:16:34.932Z,3.02
2016-10-28T02:17:34.903Z,3.19
2016-10-28T02:18:34.878Z,3.23
2016-10-28T02:19:34.911Z,3.3
2016-10-28T02:20:34.855Z,3.35
2016-10-28T02:21:34.830Z,3.53
2016-10-28T02:22:34.848Z,3.63
2016-10-28T02:23:34.827Z,3.7
2016-10-28T02:24:34.815Z,3.63
2016-10-28T02:25:34.794Z,3.67
2016-10-28T02:26:34.815Z,3.74
2016-10-28T02:27:34.799Z,3.81
2016-10-28T02:28:34.798Z,3.86
2016-10-28T02:29:34.757Z,3.86
2016-10-28T02:30:34.761Z,3.8
2016-10-28T02:31:34.705Z,3.82
2016-10-28T02:32:34.730Z,3.63
2016-10-28T02:33:34.693Z,3.53
2016-10-28T02:34:34.669Z,3.35
2016-10-28T02:35:34.680Z,3.28
2016-10-28T02:36:34.650Z,3.26
2016-10-28T02:37:34.668Z,3.25
2016-10-28T02:38:34.653Z,3.3
2016-10-28T02:39:34.665Z,3.28
2016-10-28T02:40:34.634Z,3.42
2016-10-28T02:41:34.615Z,3.44
2016-10-28T02:42:34.627Z,3.39
2016-10-28T02:43:34.609Z,3.46
2016-10-28T02:44:34.574Z,3.26
2016-10-28T02:45:34.547Z,3.16
2016-10-28T02:46:34.567Z,3.12
2016-10-28T02:47:34.548Z,3.16
2016-10-28T02:48:34.515Z,3.05
2016-10-28T02:49:34.523Z,2.99
2016-10-28T02:50:34.477Z,2.95
2016-10-28T02:51:34.506Z,3.12
2016-10-28T02:52:34.509Z,3.19
2016-10-28T02:53:34.500Z,3.25
2016-10-28T02:54:34.474Z,3.19
2016-10-28T02:55:34.450Z,3.25
2016-10-28T02:56:34.426Z,3.33
2016-10-28T02:57:34.413Z,3.53
2016-10-28T02:58:34.380Z,3.45
2016-10-28T02:59:34.400Z,3.59
2016-10-28T03:00:34.695Z,3.52
2016-10-28T03:01:34.383Z,3.53
2016-10-28T03:02:34.369Z,3.39
2016-10-28T03:03:34.353Z,3.3
2016-10-28T03:04:34.349Z,3.22
2016-10-28T03:05:34.317Z,3.25
2016-10-28T03:06:34.316Z,3.17
2016-10-28T03:07:34.270Z,3.02
2016-10-28T03:08:34.324Z,2.87
2016-10-28T03:09:34.294Z,2.94
2016-10-28T03:10:34.257Z,2.79
2016-10-28T03:11:34.248Z,2.83
2016-10-28T03:12:34.232Z,2.79
2016-10-28T03:13:34.222Z,2.62
2016-10-28T03:14:34.218Z,2.56
2016-10-28T03:15:34.213Z,2.48
2016-10-28T03:16:34.217Z,2.63
2016-10-28T03:17:34.223Z,2.55
2016-10-28T03:18:34.145Z,2.69
2016-10-28T03:19:34.152Z,2.63
2016-10-28T03:20:34.131Z,2.74
2016-10-28T03:21:34.114Z,2.8
2016-10-28T03:22:34.082Z,2.74
2016-10-28T03:23:34.087Z,2.71
2016-10-28T03:24:34.054Z,2.8
2016-10-28T03:25:34.072Z,2.8
2016-10-28T03:26:34.060Z,2.77
2016-10-28T03:27:34.041Z,2.8
2016-10-28T03:28:34.033Z,2.77
2016-10-28T03:29:34.007Z,2.68
2016-10-28T03:30:34.047Z,2.77
2016-10-28T03:31:33.996Z,2.68
2016-10-28T03:32:33.982Z,2.63
2016-10-28T03:33:33.986Z,2.62
2016-10-28T03:34:33.951Z,2.62
2016-10-28T03:35:33.945Z,2.69
2016-10-28T03:36:33.944Z,2.79
2016-10-28T03:37:33.887Z,2.76
2016-10-28T03:38:33.931Z,2.81
2016-10-28T03:39:33.895Z,2.92
2016-10-28T03:40:33.903Z,2.9
2016-10-28T03:41:33.845Z,2.79
2016-10-28T03:42:33.844Z,2.97
2016-10-28T03:43:33.844Z,2.94
2016-10-28T03:44:33.796Z,2.84
2016-10-28T03:45:33.816Z,2.79
2016-10-28T03:46:33.804Z,2.81
2016-10-28T03:47:33.792Z,2.79
2016-10-28T03:48:33.787Z,2.79
2016-10-28T03:49:33.768Z,2.71
2016-10-28T03:50:33.720Z,2.79
2016-10-28T03:51:33.719Z,2.81
2016-10-28T03:52:33.714Z,2.73
2016-10-28T03:53:33.724Z,2.77
2016-10-28T03:54:33.670Z,2.68
2016-10-28T03:55:33.675Z,2.83
2016-10-28T03:56:33.652Z,2.81
2016-10-28T03:57:33.650Z,2.9
2016-10-28T03:58:33.637Z,2.94
2016-10-28T03:59:33.614Z,2.9
2016-10-28T04:00:33.645Z,2.94
2016-10-28T04:01:33.612Z,2.84
2016-10-28T04:02:33.588Z,2.8
2016-10-28T04:03:33.585Z,2.8
2016-10-28T04:04:33.542Z,2.92
2016-10-28T04:05:33.560Z,2.98
2016-10-28T04:06:33.512Z,2.95
2016-10-28T04:07:33.535Z,2.98
2016-10-28T04:08:33.528Z,3.05
2016-10-28T04:09:33.511Z,2.98
2016-10-28T04:10:33.507Z,3.08
2016-10-28T04:11:33.506Z,3.16
2016-10-28T04:12:33.478Z,3.1
2016-10-28T04:13:33.448Z,3.12
2016-10-28T04:14:33.534Z,3.15
2016-10-28T04:15:33.425Z,3.28
2016-10-28T04:16:33.406Z,3.3
2016-10-28T04:17:33.394Z,3.26
2016-10-28T04:18:33.366Z,3.37
2016-10-28T04:19:33.388Z,3.8
2016-10-28T04:20:33.338Z,3.98
2016-10-28T04:21:33.335Z,4
2016-10-28T04:22:33.387Z,3.96
2016-10-28T04:23:33.312Z,4.13
2016-10-28T04:24:33.335Z,4.16
2016-10-28T04:25:33.318Z,4.1
2016-10-28T04:26:33.306Z,4.1
2016-10-28T04:27:33.273Z,4
2016-10-28T04:28:33.267Z,3.82
2016-10-28T04:29:33.262Z,3.68
2016-10-28T04:30:33.218Z,3.71
2016-10-28T04:31:33.226Z,3.71
2016-10-28T04:32:33.227Z,3.64
2016-10-28T04:33:33.257Z,3.67
2016-10-28T04:34:33.169Z,3.89
2016-10-28T04:35:33.188Z,3.82
2016-10-28T04:36:33.145Z,3.84
2016-10-28T04:37:33.169Z,3.68
2016-10-28T04:38:33.175Z,3.53
2016-10-28T04:39:33.164Z,3.75
2016-10-28T04:40:33.129Z,3.88
2016-10-28T04:41:33.129Z,3.8
2016-10-28T04:42:33.123Z,3.68
2016-10-28T04:43:33.115Z,3.72
2016-10-28T04:44:33.053Z,3.7
2016-10-28T04:45:33.102Z,3.72
2016-10-28T04:46:33.028Z,3.64
2016-10-28T04:47:33.061Z,3.6
2016-10-28T04:48:33.033Z,3.7
2016-10-28T04:49:33.002Z,3.74
2016-10-28T04:50:33.003Z,3.93
2016-10-28T04:51:33.002Z,3.93
2016-10-28T04:52:33.008Z,4.06
2016-10-28T04:53:32.995Z,4.11
2016-10-28T04:54:33.001Z,4.1
2016-10-28T04:55:32.931Z,4.18
2016-10-28T04:56:32.962Z,4.28
2016-10-28T04:57:32.916Z,4.25
2016-10-28T04:58:32.908Z,4.14
2016-10-28T04:59:32.869Z,4.14
2016-10-28T05:00:32.891Z,4.2
2016-10-28T05:01:32.866Z,4.2
2016-10-28T05:02:32.845Z,4.21
2016-10-28T05:03:32.842Z,4.25
2016-10-28T05:04:32.887Z,4.26
2016-10-28T05:05:32.810Z,4.18
2016-10-28T05:06:32.808Z,4.14
2016-10-28T05:07:32.797Z,4.21
2016-10-28T05:08:32.798Z,4.14
2016-10-28T05:09:32.784Z,4.17
2016-10-28T05:10:32.791Z,4.13
2016-10-28T05:11:32.750Z,4.14
2016-10-28T05:12:32.732Z,4.2
2016-10-28T05:13:32.718Z,4.17
2016-10-28T05:14:32.717Z,4.14
2016-10-28T05:15:32.681Z,4.26
2016-10-28T05:16:32.698Z,4.21
2016-10-28T05:17:32.693Z,4.17
2016-10-28T05:18:32.667Z,4.14
2016-10-28T05:19:32.636Z,4.1
2016-10-28T05:20:32.767Z,4.25
2016-10-28T05:21:32.635Z,4.16
2016-10-28T05:22:32.652Z,4.08
2016-10-28T05:23:32.643Z,4.07
2016-10-28T05:24:32.600Z,4.21
2016-10-28T05:25:32.562Z,4.18
2016-10-28T05:26:32.574Z,4.21
2016-10-28T05:27:32.577Z,4.16
2016-10-28T05:28:32.560Z,4.21
2016-10-28T05:29:32.527Z,4.17
2016-10-28T05:30:32.573Z,4.18
2016-10-28T05:31:32.501Z,4.31
2016-10-28T05:32:32.515Z,4.36
2016-10-28T05:33:32.554Z,4.43
2016-10-28T05:34:32.552Z,4.5
2016-10-28T05:35:32.500Z,4.51
2016-10-28T05:36:32.472Z,4.5
2016-10-28T05:37:32.459Z,4.53
2016-10-28T05:38:32.430Z,4.51
2016-10-28T05:39:32.429Z,4.39
2016-10-28T05:40:32.417Z,4.38
2016-10-28T05:41:32.386Z,4.38
2016-10-28T05:42:32.374Z,4.38
2016-10-28T05:43:32.369Z,4.36
2016-10-28T05:44:32.390Z,4.16
2016-10-28T05:45:32.380Z,4.2
2016-10-28T05:46:32.328Z,4.14
2016-10-28T05:47:32.335Z,4.25
2016-10-28T05:48:32.334Z,4.17
2016-10-28T05:49:32.310Z,4.17
2016-10-28T05:50:32.321Z,4.1
2016-10-28T05:51:32.299Z,4.17
2016-10-28T05:52:32.255Z,4.06
2016-10-28T05:53:32.264Z,3.84
2016-10-28T05:54:32.271Z,3.82
2016-10-28T05:55:32.267Z,3.82
2016-10-28T05:56:32.206Z,3.84
2016-10-28T05:57:32.196Z,3.86
2016-10-28T05:58:32.213Z,4
2016-10-28T05:59:32.164Z,3.89
2016-10-28T06:00:32.174Z,3.99
2016-10-28T06:01:32.160Z,4
2016-10-28T06:02:32.138Z,4.07
2016-10-28T06:03:32.116Z,4.11
2016-10-28T06:04:32.111Z,4.25
2016-10-28T06:05:32.093Z,4.28
2016-10-28T06:06:32.088Z,4.32
2016-10-28T06:07:32.089Z,4.67
2016-10-28T06:08:32.128Z,4.87
2016-10-28T06:09:32.079Z,4.87
2016-10-28T06:10:32.033Z,4.96
2016-10-28T06:11:32.059Z,5.06
2016-10-28T06:12:32.069Z,5.29
2016-10-28T06:13:32.353Z,5.41
2016-10-28T06:14:32.020Z,5.59
2016-10-28T06:15:32.012Z,5.51
2016-10-28T06:16:32.000Z,5.75
2016-10-28T06:17:31.980Z,5.92
2016-10-28T06:18:31.991Z,6.27
2016-10-28T06:19:31.970Z,6.25
2016-10-28T06:20:31.977Z,6.14
2016-10-28T06:21:31.913Z,5.85
2016-10-28T06:22:31.945Z,5.62
2016-10-28T06:23:31.934Z,5.47
2016-10-28T06:24:31.903Z,5.41
2016-10-28T06:25:31.896Z,5.47
2016-10-28T06:26:32.176Z,5.75
2016-10-28T06:27:31.867Z,5.8
2016-10-28T06:28:31.906Z,6.19
2016-10-28T06:29:31.825Z,6.33
2016-10-28T06:30:31.848Z,6.75
2016-10-28T06:31:31.828Z,7.01
2016-10-28T06:32:31.827Z,7.11
2016-10-28T06:33:31.793Z,6.83
2016-10-28T06:34:31.806Z,7.07
2016-10-28T06:35:31.814Z,7.42
2016-10-28T06:36:31.776Z,7.76
2016-10-28T06:37:31.797Z,7.76
2016-10-28T06:38:31.730Z,7.94
2016-10-28T06:39:31.742Z,8
2016-10-28T06:40:31.760Z,8.14
2016-10-28T06:41:31.736Z,8.2
2016-10-28T06:42:31.743Z,8.28
2016-10-28T06:43:31.707Z,8.13
2016-10-28T06:44:31.727Z,7.71
2016-10-28T06:45:31.691Z,7.94
2016-10-28T06:46:31.683Z,8.13
2016-10-28T06:47:31.678Z,8.52
2016-10-28T06:48:31.660Z,8.88
2016-10-28T06:49:31.638Z,9.12
2016-10-28T06:50:31.656Z,9.41
2016-10-28T06:51:31.614Z,9.4
2016-10-28T06:52:31.630Z,9.27
2016-10-28T06:53:31.629Z,9.01
2016-10-28T06:54:31.593Z,9.08
2016-10-28T06:55:31.601Z,9.38
2016-10-28T06:56:31.601Z,9.49
2016-10-28T06:57:31.572Z,9.71
2016-10-28T06:58:31.544Z,9.99
2016-10-28T06:59:31.571Z,10.14
2016-10-28T07:00:31.581Z,10.26
2016-10-28T07:01:31.540Z,10.51
2016-10-28T07:02:31.609Z,10.68
2016-10-28T07:03:31.556Z,10.98
2016-10-28T07:04:31.525Z,10.84
2016-10-28T07:05:31.539Z,10.81
2016-10-28T07:06:31.491Z,10.69
2016-10-28T07:07:31.522Z,10.68
2016-10-28T07:08:31.516Z,10.65
2016-10-28T07:09:31.510Z,10.8
2016-10-28T07:10:31.453Z,10.68
2016-10-28T07:11:31.491Z,10.43
2016-10-28T07:12:31.465Z,10.34
2016-10-28T07:13:31.470Z,10.24
2016-10-28T07:14:31.440Z,10.22
2016-10-28T07:15:31.419Z,10.25
2016-10-28T07:16:31.424Z,10.1
2016-10-28T07:17:31.407Z,10.06
2016-10-28T07:18:31.415Z,10.44
2016-10-28T07:19:31.423Z,10.7
2016-10-28T07:20:31.382Z,10.81
2016-10-28T07:21:31.405Z,10.9
2016-10-28T07:22:31.407Z,11.11
2016-10-28T07:23:31.383Z,11.05
2016-10-28T07:24:31.393Z,10.98
2016-10-28T07:25:31.370Z,11.23
2016-10-28T07:26:31.327Z,11.6
2016-10-28T07:27:31.359Z,11.64
2016-10-28T07:28:31.358Z,11.36
2016-10-28T07:29:31.332Z,11.28
2016-10-28T07:30:31.327Z,11.02
2016-10-28T07:31:31.329Z,11.24
2016-10-28T07:32:31.340Z,11.28
2016-10-28T07:33:31.298Z,11.26
2016-10-28T07:34:31.341Z,11.45
2016-10-28T07:35:31.274Z,11.23
2016-10-28T07:36:31.312Z,11.44
2016-10-28T07:37:31.270Z,11.69
2016-10-28T07:38:31.238Z,12
2016-10-28T07:39:31.263Z,12.16
2016-10-28T07:40:31.260Z,12.31
2016-10-28T07:41:31.238Z,12.15
2016-10-28T07:42:31.255Z,12.11
2016-10-28T07:43:31.265Z,11.97
2016-10-28T07:44:31.251Z,11.54
2016-10-28T07:45:31.213Z,11.78
2016-10-28T07:46:31.244Z,12.15
2016-10-28T07:47:31.181Z,12.16
2016-10-28T07:48:31.225Z,12.43
2016-10-28T07:49:31.192Z,12.59
2016-10-28T07:50:31.214Z,12.44
2016-10-28T07:51:31.174Z,12.29
2016-10-28T07:52:31.248Z,12.55
2016-10-28T07:53:31.159Z,12.31
2016-10-28T07:54:31.147Z,12.18
2016-10-28T07:55:31.145Z,12.11
2016-10-28T07:56:31.135Z,12.08
2016-10-28T07:57:31.140Z,12.34
2016-10-28T07:58:31.153Z,12.31
2016-10-28T07:59:31.129Z,12.41
2016-10-28T08:00:31.121Z,12.62
2016-10-28T08:01:31.133Z,12.46
2016-10-28T08:02:31.177Z,12.23
2016-10-28T08:03:31.118Z,11.72
2016-10-28T08:04:31.095Z,11.51
2016-10-28T08:05:31.067Z,11.75
2016-10-28T08:06:31.080Z,12.03
2016-10-28T08:07:31.078Z,12.4
2016-10-28T08:08:31.052Z,12.77
2016-10-28T08:09:31.077Z,13.12
2016-10-28T08:10:31.076Z,13.28
2016-10-28T08:11:31.417Z,13.71
2016-10-28T08:12:31.050Z,13.76
2016-10-28T08:13:31.046Z,14.06
2016-10-28T08:14:31.098Z,13.68
2016-10-28T08:15:31.073Z,12.87
2016-10-28T08:16:30.991Z,12.49
2016-10-28T08:17:31.032Z,12.62
2016-10-28T08:18:31.019Z,12.91
2016-10-28T08:19:31.019Z,13.24
2016-10-28T08:20:30.991Z,13.48
2016-10-28T08:21:30.986Z,13.65
2016-10-28T08:22:30.980Z,13.51
2016-10-28T08:23:30.976Z,13.31
2016-10-28T08:24:31.004Z,13.09
2016-10-28T08:25:31.001Z,11.64
2016-10-28T08:26:30.984Z,11.59
2016-10-28T08:27:30.977Z,11.6
2016-10-28T08:28:30.968Z,11.7
2016-10-28T08:29:30.952Z,12.3
2016-10-28T08:30:30.966Z,12.33
2016-10-28T08:31:30.943Z,12.63
2016-10-28T08:32:30.922Z,12.66
2016-10-28T08:33:30.898Z,12.74
2016-10-28T08:34:30.925Z,13.13
2016-10-28T08:35:30.927Z,13.44
2016-10-28T08:36:30.900Z,13.63
2016-10-28T08:37:30.874Z,14.05
2016-10-28T08:38:30.865Z,14.09
2016-10-28T08:39:30.869Z,13.86
2016-10-28T08:40:30.888Z,13.76
2016-10-28T08:41:30.883Z,13.09
2016-10-28T08:42:30.913Z,12.59
2016-10-28T08:43:31.202Z,12.54
2016-10-28T08:44:30.845Z,12.22
2016-10-28T08:45:31.057Z,12.4
2016-10-28T08:46:30.864Z,12.73
2016-10-28T08:47:30.845Z,12.62
2016-10-28T08:48:30.851Z,12.12
2016-10-28T08:49:30.827Z,11.53
2016-10-28T08:50:30.803Z,11.62
2016-10-28T08:51:30.825Z,11.94
2016-10-28T08:52:30.804Z,12.26
2016-10-28T08:53:30.844Z,11.82
2016-10-28T08:54:30.898Z,11.74
2016-10-28T08:55:30.824Z,11.42
2016-10-28T08:56:30.798Z,11.81
2016-10-28T08:57:30.774Z,11.88
2016-10-28T08:58:30.780Z,11.96
2016-10-28T08:59:30.746Z,12.44
2016-10-28T09:00:30.751Z,12.52
2016-10-28T09:01:30.752Z,12.87
2016-10-28T09:02:30.757Z,13.24
2016-10-28T09:03:30.758Z,13.32
2016-10-28T09:04:30.719Z,13.1
2016-10-28T09:05:30.769Z,12.73
2016-10-28T09:06:30.713Z,12.46
2016-10-28T09:07:30.737Z,11.63
2016-10-28T09:08:30.720Z,12.04
2016-10-28T09:09:30.686Z,11.94
2016-10-28T09:10:30.731Z,11.67
2016-10-28T09:11:30.693Z,12.07
2016-10-28T09:12:30.710Z,11.75
2016-10-28T09:13:30.712Z,11.81
2016-10-28T09:14:30.887Z,11.7
2016-10-28T09:15:30.675Z,12.03
2016-10-28T09:16:30.663Z,12.26
2016-10-28T09:17:30.839Z,12.26
2016-10-28T09:18:30.657Z,12.08
2016-10-28T09:19:30.658Z,12.16
2016-10-28T09:20:30.657Z,12.13
2016-10-28T09:21:30.646Z,11.88
2016-10-28T09:22:30.655Z,11.79
2016-10-28T09:23:30.617Z,11.44
2016-10-28T09:24:30.605Z,11.39
2016-10-28T09:25:30.636Z,11.74
2016-10-28T09:26:30.627Z,12.26
2016-10-28T09:27:30.605Z,12.46
2016-10-28T09:28:30.623Z,12.55
2016-10-28T09:29:30.582Z,12.51
2016-10-28T09:30:30.563Z,12.55
2016-10-28T09:31:30.599Z,12.69
2016-10-28T09:32:30.570Z,12.7
2016-10-28T09:33:30.562Z,12.73
2016-10-28T09:34:30.560Z,12.91
2016-10-28T09:35:30.541Z,13.12
2016-10-28T09:36:30.526Z,13.29
2016-10-28T09:37:30.505Z,13.5
2016-10-28T09:38:30.530Z,13.63
2016-10-28T09:39:30.510Z,13.24
2016-10-28T09:40:30.575Z,13.19
2016-10-28T09:41:30.499Z,12.8
2016-10-28T09:42:30.509Z,12.77
2016-10-28T09:43:30.472Z,12.7
2016-10-28T09:44:30.546Z,12.73
2016-10-28T09:45:30.487Z,13.1
2016-10-28T09:46:30.471Z,12.61
2016-10-28T09:47:30.446Z,12.52
2016-10-28T09:48:30.436Z,12.59
2016-10-28T09:49:30.442Z,12.76
2016-10-28T09:50:30.680Z,13.12
2016-10-28T09:51:30.443Z,13.09
2016-10-28T09:52:30.438Z,13.04
2016-10-28T09:53:30.448Z,12.77
2016-10-28T09:54:30.772Z,12.59
2016-10-28T09:55:30.397Z,12.51
2016-10-28T09:56:30.392Z,12.37
2016-10-28T09:57:30.386Z,12
2016-10-28T09:58:30.380Z,11.93
2016-10-28T09:59:30.394Z,12.38
2016-10-28T10:00:30.417Z,12.49
2016-10-28T10:01:30.382Z,12
2016-10-28T10:02:30.365Z,11.66
2016-10-28T10:03:30.402Z,12.18
2016-10-28T10:04:30.342Z,12.76
2016-10-28T10:05:30.434Z,13.19
2016-10-28T10:06:30.353Z,13.25
2016-10-28T10:07:30.356Z,13.09
2016-10-28T10:08:30.336Z,12.91
2016-10-28T10:09:30.334Z,12.95
2016-10-28T10:10:30.374Z,12.41
2016-10-28T10:11:30.297Z,12.71
2016-10-28T10:12:30.294Z,13.22
2016-10-28T10:13:30.367Z,13.36
2016-10-28T10:14:30.311Z,13.12
2016-10-28T10:15:30.325Z,12.61
2016-10-28T10:16:30.315Z,12.52
2016-10-28T10:17:30.304Z,12.69
2016-10-28T10:18:30.290Z,12.77
2016-10-28T10:19:30.272Z,12.96
2016-10-28T10:20:30.277Z,13.29
2016-10-28T10:21:30.474Z,13.68
2016-10-28T10:22:30.243Z,14.23
2016-10-28T10:23:30.431Z,14.54
2016-10-28T10:24:30.461Z,14.21
2016-10-28T10:25:30.256Z,14.3
2016-10-28T10:26:30.225Z,14.34
2016-10-28T10:27:30.299Z,14.12
2016-10-28T10:28:30.241Z,14.08
2016-10-28T10:29:30.202Z,13.81
2016-10-28T10:30:30.220Z,13.57
2016-10-28T10:31:30.214Z,13.44
2016-10-28T10:32:30.236Z,12.79
2016-10-28T10:33:30.183Z,12.3
2016-10-28T10:34:30.176Z,12.16
2016-10-28T10:35:30.183Z,11.79
2016-10-28T10:36:30.178Z,12.15
2016-10-28T10:37:30.199Z,12.77
2016-10-28T10:38:30.185Z,13.14
2016-10-28T10:39:30.189Z,13.07
2016-10-28T10:40:30.161Z,12.88
2016-10-28T10:41:30.177Z,11.98
2016-10-28T10:42:30.121Z,11.97
2016-10-28T10:43:30.125Z,12.3
2016-10-28T10:44:30.126Z,12.08
2016-10-28T10:45:30.096Z,11.93
2016-10-28T10:46:30.127Z,12.01
2016-10-28T10:47:30.086Z,12.15
2016-10-28T10:48:30.082Z,12.37
2016-10-28T10:49:30.073Z,12.61
2016-10-28T10:50:30.108Z,11.63
2016-10-28T10:51:30.118Z,11.78
2016-10-28T10:52:30.080Z,11.75
2016-10-28T10:53:30.067Z,12.15
2016-10-28T10:54:30.051Z,12.84
2016-10-28T10:55:30.044Z,13.01
2016-10-28T10:56:30.286Z,13.1
2016-10-28T10:57:30.231Z,12.89
2016-10-28T10:58:30.013Z,13.39
2016-10-28T10:59:30.029Z,13.66
2016-10-28T11:00:30.008Z,13.59
2016-10-28T11:01:30.020Z,13.24
2016-10-28T11:02:30.019Z,13.07
2016-10-28T11:03:30.014Z,13.38
2016-10-28T11:04:30.014Z,13.79
2016-10-28T11:05:30.052Z,13.86
2016-10-28T11:06:30.006Z,13.81
2016-10-28T11:07:29.995Z,13.98
2016-10-28T11:08:30.064Z,13.63
2016-10-28T11:09:29.995Z,13.9
2016-10-28T11:10:29.966Z,13.79
2016-10-28T11:11:29.944Z,13.68
2016-10-28T11:12:29.978Z,13.54
2016-10-28T11:13:29.966Z,12.79
2016-10-28T11:14:29.958Z,12.38
2016-10-28T11:15:29.929Z,12.13
2016-10-28T11:16:29.977Z,12.36
2016-10-28T11:17:29.915Z,11.94
2016-10-28T11:18:29.913Z,11.84
2016-10-28T11:19:29.929Z,12.07
2016-10-28T11:20:29.919Z,12.16
2016-10-28T11:21:29.914Z,11.62
2016-10-28T11:22:29.920Z,11.35
2016-10-28T11:23:29.925Z,11.08
2016-10-28T11:24:29.895Z,11.08
2016-10-28T11:25:29.879Z,11.21
2016-10-28T11:26:29.875Z,10.24
2016-10-28T11:27:29.839Z,10.43
2016-10-28T11:28:29.879Z,10.38
2016-10-28T11:29:29.863Z,9.91
2016-10-28T11:30:29.877Z,9.89
2016-10-28T11:31:29.869Z,10.11
2016-10-28T11:32:29.817Z,10.09
2016-10-28T11:33:29.824Z,9.63
2016-10-28T11:34:29.838Z,9.77
2016-10-28T11:35:29.816Z,9.73
2016-10-28T11:36:29.798Z,10.02
2016-10-28T11:37:29.810Z,10.43
2016-10-28T11:38:29.795Z,10.16
2016-10-28T11:39:29.805Z,10.42
2016-10-28T11:40:29.778Z,9.98
2016-10-28T11:41:29.760Z,9.73
2016-10-28T11:42:30.061Z,9.37
2016-10-28T11:43:29.751Z,9.23
2016-10-28T11:44:29.735Z,9.5
2016-10-28T11:45:29.714Z,9.37
2016-10-28T11:46:29.713Z,8.76
2016-10-28T11:47:29.726Z,8.6
2016-10-28T11:48:29.720Z,8.71
2016-10-28T11:49:29.677Z,8.54
2016-10-28T11:50:29.672Z,8.37
2016-10-28T11:51:29.680Z,8.37
2016-10-28T11:52:29.682Z,8.49
2016-10-28T11:53:29.650Z,8.18
2016-10-28T11:54:29.644Z,8.39
2016-10-28T11:55:29.672Z,8.45
2016-10-28T11:56:29.632Z,8.67
2016-10-28T11:57:29.626Z,8.37
2016-10-28T11:58:29.635Z,8.18
2016-10-28T11:59:29.609Z,8.76
2016-10-28T12:00:29.601Z,8.4
2016-10-28T12:01:29.567Z,8.71
2016-10-28T12:02:29.601Z,9.15
2016-10-28T12:03:29.571Z,9.03
2016-10-28T12:04:29.536Z,9.01
2016-10-28T12:05:29.548Z,8.89
2016-10-28T12:06:29.564Z,9.2
2016-10-28T12:07:29.532Z,9.42
2016-10-28T12:08:29.824Z,9.88
2016-10-28T12:09:29.518Z,9.99
2016-10-28T12:10:29.808Z,10.04
2016-10-28T12:11:29.491Z,10.29
2016-10-28T12:12:29.504Z,10.47
2016-10-28T12:13:29.475Z,10.32
2016-10-28T12:14:29.453Z,10.26
2016-10-28T12:15:29.444Z,9.1
2016-10-28T12:16:29.448Z,8.82
2016-10-28T12:17:29.431Z,8.37
2016-10-28T12:18:29.420Z,7.39
2016-10-28T12:19:29.432Z,7.26
2016-10-28T12:20:29.431Z,7.37
2016-10-28T12:21:29.402Z,7.55
2016-10-28T12:22:29.387Z,7.95
2016-10-28T12:23:29.376Z,8.12
2016-10-28T12:24:29.344Z,8.22
2016-10-28T12:25:29.387Z,8.29
2016-10-28T12:26:29.344Z,8.49
2016-10-28T12:27:29.334Z,8.46
2016-10-28T12:28:29.338Z,8.39
2016-10-28T12:29:29.340Z,8.13
2016-10-28T12:30:29.305Z,8.17
2016-10-28T12:31:29.300Z,8.27
2016-10-28T12:32:29.297Z,8.39
2016-10-28T12:33:29.273Z,8.13
2016-10-28T12:34:29.259Z,8.2
2016-10-28T12:35:29.271Z,8.17
2016-10-28T12:36:29.247Z,8.02
2016-10-28T12:37:29.271Z,7.79
2016-10-28T12:38:29.217Z,7.66
2016-10-28T12:39:29.254Z,7.73
2016-10-28T12:40:29.197Z,7.62
2016-10-28T12:41:29.242Z,7.27
2016-10-28T12:42:29.181Z,7.23
2016-10-28T12:43:29.175Z,7.24
2016-10-28T12:44:29.202Z,7
2016-10-28T12:45:29.155Z,7.04
2016-10-28T12:46:29.170Z,6.94
2016-10-28T12:47:29.144Z,6.72
2016-10-28T12:48:29.116Z,6.82
2016-10-28T12:49:29.147Z,6.58
2016-10-28T12:50:29.108Z,6.6
2016-10-28T12:51:29.094Z,6.54
2016-10-28T12:52:29.102Z,6.53
2016-10-28T12:53:29.088Z,6.53
2016-10-28T12:54:29.073Z,6.51
2016-10-28T12:55:29.175Z,6.93
2016-10-28T12:56:29.089Z,7.42
2016-10-28T12:57:29.008Z,7.92
2016-10-28T12:58:29.032Z,8.31
2016-10-28T12:59:29.019Z,8.4
2016-10-28T13:00:28.998Z,8.6
2016-10-28T13:01:29.030Z,8.86
2016-10-28T13:02:28.968Z,9.03
2016-10-28T13:03:28.964Z,8.68
2016-10-28T13:04:28.963Z,8.91
2016-10-28T13:05:28.948Z,8.97
2016-10-28T13:06:28.952Z,8.79
2016-10-28T13:07:28.955Z,9.08
2016-10-28T13:08:28.924Z,8.71
2016-10-28T13:09:28.932Z,9
2016-10-28T13:10:28.880Z,9.34
2016-10-28T13:11:28.917Z,9.3
2016-10-28T13:12:28.928Z,8.98